Time;durP1;ratioP1;P1;durP2;ratioP2;P2;SDS_P1;SDS_P2;PMS_P1;PMS_P2;Temp;Humidity;BMP_temperature;BMP_pressure;BME280_temperature;BME280_humidity;BME280_pressure;Samples;Min_cycle;Max_cycle;Signal;HPM_P1;HPM_P2
2024/03/20 00:02:01;;;;;;;11.18;5.85;;;10.40;99.90;;;;;;4856474;29;20081;-71
2024/03/20 00:04:27;;;;;;;15.20;6.22;;;10.40;99.90;;;;;;4870002;29;20057;-70
2024/03/20 00:06:53;;;;;;;12.23;6.28;;;10.30;99.90;;;;;;4876732;29;20049;-70
2024/03/20 00:09:19;;;;;;;14.50;6.35;;;10.30;99.90;;;;;;4875755;29;20084;-70
2024/03/20 00:11:48;;;;;;;11.45;6.47;;;10.20;99.90;;;;;;4876299;29;20079;-70
2024/03/20 00:14:14;;;;;;;14.45;6.28;;;10.20;99.90;;;;;;4873496;29;20128;-70
2024/03/20 00:16:41;;;;;;;12.07;6.57;;;10.10;99.90;;;;;;4876303;29;20041;-70
2024/03/20 00:19:06;;;;;;;13.15;6.43;;;10.10;99.90;;;;;;4882225;29;20100;-70
2024/03/20 00:21:34;;;;;;;17.05;7.50;;;10.10;99.90;;;;;;4874220;29;20049;-70
2024/03/20 00:24:00;;;;;;;10.60;6.07;;;10.10;99.90;;;;;;4878203;29;20056;-70
2024/03/20 00:26:26;;;;;;;17.65;6.68;;;10.10;99.90;;;;;;4875452;29;20077;-70
2024/03/20 00:28:52;;;;;;;13.38;6.25;;;10.00;99.90;;;;;;4875460;29;20128;-71
2024/03/20 00:31:17;;;;;;;12.23;6.10;;;10.00;99.90;;;;;;4870950;29;20626;-70
2024/03/20 00:33:43;;;;;;;12.80;6.30;;;10.00;99.90;;;;;;4871019;29;20045;-70
2024/03/20 00:36:09;;;;;;;13.15;6.45;;;10.00;99.90;;;;;;4875365;29;20037;-73
2024/03/20 00:38:34;;;;;;;13.18;7.03;;;10.00;99.90;;;;;;4875300;29;20125;-70
2024/03/20 00:41:00;;;;;;;13.77;6.50;;;10.00;99.90;;;;;;4879935;29;20117;-71
2024/03/20 00:43:26;;;;;;;13.15;6.47;;;10.00;99.90;;;;;;4874625;29;20048;-71
2024/03/20 00:45:51;;;;;;;13.25;7.05;;;10.00;99.90;;;;;;4872348;29;20047;-70
2024/03/20 00:48:17;;;;;;;13.88;6.53;;;9.90;99.90;;;;;;4877917;29;20059;-70
2024/03/20 00:50:42;;;;;;;11.52;6.53;;;9.90;99.90;;;;;;4875041;29;20513;-70
2024/03/20 00:53:08;;;;;;;10.75;6.45;;;9.90;99.90;;;;;;4875525;29;20041;-73
2024/03/20 00:55:35;;;;;;;13.73;6.15;;;9.90;99.90;;;;;;4852954;29;20048;-70
2024/03/20 00:58:01;;;;;;;13.05;6.80;;;9.90;99.90;;;;;;4875511;29;20097;-70
2024/03/20 01:00:26;;;;;;;15.18;6.40;;;9.90;99.90;;;;;;4875871;29;20045;-71
2024/03/20 01:02:53;;;;;;;12.77;6.38;;;9.90;99.90;;;;;;4875504;29;20561;-70
2024/03/20 01:05:19;;;;;;;11.13;6.00;;;9.90;99.90;;;;;;4876342;29;20036;-70
2024/03/20 01:07:45;;;;;;;10.73;6.28;;;9.90;99.90;;;;;;4875380;29;20495;-70
2024/03/20 01:10:10;;;;;;;11.00;6.18;;;9.80;99.90;;;;;;4858181;29;20045;-71
2024/03/20 01:12:36;;;;;;;13.32;6.53;;;9.80;99.90;;;;;;4858811;29;20057;-70
2024/03/20 01:15:03;;;;;;;12.43;6.10;;;9.80;99.90;;;;;;4874882;29;20040;-70
2024/03/20 01:17:29;;;;;;;11.30;6.65;;;9.80;99.90;;;;;;4859782;29;20457;-71
2024/03/20 01:19:55;;;;;;;11.32;6.22;;;9.80;99.90;;;;;;4876040;29;20141;-72
2024/03/20 01:22:20;;;;;;;13.07;6.32;;;9.80;99.90;;;;;;4875655;29;20049;-70
2024/03/20 01:24:46;;;;;;;13.82;6.45;;;9.80;99.90;;;;;;4869747;29;20041;-70
2024/03/20 01:27:12;;;;;;;13.10;6.47;;;9.70;99.90;;;;;;4874376;29;20041;-70
2024/03/20 01:29:37;;;;;;;15.40;6.47;;;9.70;99.90;;;;;;4858607;29;20049;-70
2024/03/20 01:32:03;;;;;;;12.38;6.40;;;9.70;99.90;;;;;;4875020;29;20521;-70
2024/03/20 01:34:29;;;;;;;14.50;6.05;;;9.70;99.90;;;;;;4874583;29;20044;-70
2024/03/20 01:36:54;;;;;;;12.52;6.43;;;9.80;99.90;;;;;;4868825;29;20124;-70
2024/03/20 01:39:21;;;;;;;13.52;6.22;;;9.70;99.90;;;;;;4853261;29;20483;-70
2024/03/20 01:41:46;;;;;;;8.98;5.57;;;9.80;99.90;;;;;;4869386;29;20408;-70
2024/03/20 01:44:13;;;;;;;9.48;5.35;;;9.80;99.90;;;;;;4875388;29;20041;-70
2024/03/20 01:46:40;;;;;;;9.43;5.03;;;9.80;99.90;;;;;;4871992;29;20507;-70
2024/03/20 01:49:07;;;;;;;10.40;5.78;;;9.80;99.90;;;;;;4874368;29;20120;-70
2024/03/20 01:51:33;;;;;;;10.10;5.65;;;9.80;99.90;;;;;;4872459;29;20101;-71
2024/03/20 01:54:00;;;;;;;9.38;5.82;;;9.80;99.90;;;;;;4874336;29;20514;-70
2024/03/20 01:56:26;;;;;;;12.05;5.93;;;9.80;99.90;;;;;;4874404;29;20045;-70
2024/03/20 01:58:53;;;;;;;12.43;6.30;;;9.80;99.90;;;;;;4868609;29;20048;-70
2024/03/20 02:01:19;;;;;;;11.93;6.70;;;9.80;99.90;;;;;;4873352;29;20120;-70
2024/03/20 02:03:45;;;;;;;15.52;6.50;;;9.80;99.90;;;;;;4874197;29;20053;-70
2024/03/20 02:06:21;;;;;;;13.35;6.78;;;9.80;99.90;;;;;;4875290;29;20532;-71
2024/03/20 02:08:48;;;;;;;16.27;7.35;;;9.80;99.90;;;;;;4878335;29;20056;-70
2024/03/20 02:11:14;;;;;;;13.93;7.13;;;9.80;99.90;;;;;;4875211;29;20052;-70
2024/03/20 02:13:47;;;;;;;13.70;7.10;;;9.80;99.90;;;;;;4877876;29;20045;-70
2024/03/20 02:16:14;;;;;;;15.73;7.32;;;9.80;99.90;;;;;;4879659;29;20052;-72
2024/03/20 02:18:40;;;;;;;14.95;7.70;;;9.80;99.90;;;;;;4877649;29;20437;-70
2024/03/20 02:21:13;;;;;;;12.15;7.07;;;9.80;99.90;;;;;;4874333;29;20096;-70
2024/03/20 02:23:39;;;;;;;11.73;6.70;;;9.80;99.90;;;;;;4876742;29;20049;-70
2024/03/20 02:26:06;;;;;;;12.52;6.95;;;9.80;99.90;;;;;;4877786;29;20061;-72
2024/03/20 02:28:33;;;;;;;12.30;6.85;;;9.80;99.90;;;;;;4877509;29;20049;-70
2024/03/20 02:31:00;;;;;;;12.65;6.72;;;9.80;99.90;;;;;;4877371;29;20049;-70
2024/03/20 02:33:26;;;;;;;13.60;7.43;;;9.80;99.90;;;;;;4877966;29;20080;-70
2024/03/20 02:35:53;;;;;;;16.13;7.22;;;9.80;99.90;;;;;;4877720;29;20452;-70
2024/03/20 02:38:23;;;;;;;13.25;6.97;;;9.80;99.90;;;;;;4871575;29;20037;-70
2024/03/20 02:40:49;;;;;;;12.13;6.10;;;9.80;99.90;;;;;;4874991;29;20087;-70
2024/03/20 02:43:15;;;;;;;12.43;6.10;;;9.70;99.90;;;;;;4877270;29;20048;-70
2024/03/20 02:45:41;;;;;;;11.52;6.70;;;9.60;99.90;;;;;;4875593;29;20484;-70
2024/03/20 02:48:07;;;;;;;12.43;7.00;;;9.60;99.90;;;;;;4893221;23;20041;-78
2024/03/20 02:50:33;;;;;;;11.18;6.47;;;9.60;99.90;;;;;;4894830;29;20032;-78
2024/03/20 02:53:04;;;;;;;14.85;6.63;;;9.60;99.90;;;;;;4894836;29;20546;-78
2024/03/20 02:55:31;;;;;;;13.23;6.80;;;9.60;99.90;;;;;;4879935;29;20088;-78
2024/03/20 02:57:57;;;;;;;11.52;6.57;;;9.50;99.90;;;;;;4879970;29;20045;-78
2024/03/20 03:00:23;;;;;;;12.18;6.72;;;9.60;99.90;;;;;;4862975;29;20113;-78
2024/03/20 03:02:48;;;;;;;13.50;6.28;;;9.50;99.90;;;;;;4865750;29;20052;-78
2024/03/20 03:05:14;;;;;;;10.82;6.43;;;9.20;99.90;;;;;;4878195;29;20560;-78
2024/03/20 03:07:40;;;;;;;12.45;7.20;;;9.50;99.90;;;;;;4877460;29;20048;-78
2024/03/20 03:10:08;;;;;;;10.88;6.38;;;9.60;99.90;;;;;;4879693;29;20148;-78
2024/03/20 03:12:34;;;;;;;9.32;6.03;;;9.50;99.90;;;;;;4876477;29;20049;-78
2024/03/20 03:14:59;;;;;;;12.02;6.55;;;9.50;99.90;;;;;;4877407;29;20093;-78
2024/03/20 03:17:25;;;;;;;12.27;6.65;;;9.50;99.90;;;;;;4872749;29;20070;-78
2024/03/20 03:19:51;;;;;;;14.50;6.38;;;9.70;99.90;;;;;;4877805;29;20053;-78
2024/03/20 03:22:17;;;;;;;10.20;6.28;;;9.40;99.90;;;;;;4877782;29;20187;-78
2024/03/20 03:24:43;;;;;;;10.27;6.15;;;9.40;99.90;;;;;;4875115;29;20048;-78
2024/03/20 03:27:08;;;;;;;10.90;6.45;;;9.40;99.90;;;;;;4879055;29;20495;-78
2024/03/20 03:29:35;;;;;;;13.93;6.63;;;9.70;99.90;;;;;;4877953;29;20077;-78
2024/03/20 03:32:01;;;;;;;14.85;6.70;;;9.70;99.90;;;;;;4877479;29;20140;-78
2024/03/20 03:34:27;;;;;;;11.32;5.95;;;9.40;99.90;;;;;;4876027;29;20432;-78
2024/03/20 03:36:53;;;;;;;10.48;6.57;;;9.40;99.90;;;;;;4870222;29;20042;-79
2024/03/20 03:39:19;;;;;;;17.95;7.13;;;9.40;99.90;;;;;;4877353;29;20461;-78
2024/03/20 03:41:44;;;;;;;15.10;7.05;;;9.50;99.90;;;;;;4877509;29;20056;-78
2024/03/20 03:44:10;;;;;;;12.38;6.97;;;9.50;99.90;;;;;;4878088;29;20048;-78
2024/03/20 03:46:36;;;;;;;14.10;6.82;;;9.50;99.90;;;;;;4877003;29;20100;-78
2024/03/20 03:49:03;;;;;;;12.38;7.25;;;9.50;99.90;;;;;;4873982;29;20081;-78
2024/03/20 03:51:29;;;;;;;12.13;7.65;;;9.50;99.90;;;;;;4872319;29;20088;-78
2024/03/20 03:53:55;;;;;;;13.05;7.60;;;9.50;99.90;;;;;;4878495;29;20053;-78
2024/03/20 03:56:20;;;;;;;12.52;8.40;;;9.50;99.90;;;;;;4861710;29;20587;-78
2024/03/20 03:58:46;;;;;;;15.45;8.38;;;9.60;99.90;;;;;;4869039;29;20124;-78
2024/03/20 04:01:13;;;;;;;13.98;9.35;;;9.60;99.90;;;;;;4874029;29;20116;-78
2024/03/20 04:03:39;;;;;;;21.33;9.80;;;9.60;99.90;;;;;;4875320;29;20041;-78
2024/03/20 04:06:05;;;;;;;17.27;9.88;;;9.60;99.90;;;;;;4874796;29;20366;-78
2024/03/20 04:08:30;;;;;;;16.23;9.48;;;9.60;99.90;;;;;;4873720;29;20044;-78
2024/03/20 04:10:56;;;;;;;14.52;8.98;;;9.60;99.90;;;;;;4874299;29;20048;-78
2024/03/20 04:13:22;;;;;;;16.98;8.82;;;9.70;99.90;;;;;;4877190;29;20093;-79
2024/03/20 04:15:47;;;;;;;19.83;9.70;;;9.70;99.90;;;;;;4876981;29;20049;-78
2024/03/20 04:18:13;;;;;;;16.33;9.20;;;9.70;99.90;;;;;;4867574;29;20476;-78
2024/03/20 04:20:39;;;;;;;16.80;9.13;;;9.70;99.90;;;;;;4876761;29;20076;-78
2024/03/20 04:23:05;;;;;;;21.40;9.55;;;9.70;99.90;;;;;;4874959;29;20516;-78
2024/03/20 04:25:30;;;;;;;15.63;9.32;;;9.80;99.90;;;;;;4876206;29;20169;-78
2024/03/20 04:27:57;;;;;;;19.52;9.98;;;9.70;99.90;;;;;;4876230;29;20052;-78
2024/03/20 04:30:23;;;;;;;17.38;9.60;;;9.80;99.90;;;;;;4874552;29;20037;-79
2024/03/20 04:32:48;;;;;;;16.80;9.15;;;9.80;99.90;;;;;;4878032;29;20045;-79
2024/03/20 04:35:14;;;;;;;19.20;9.27;;;9.80;99.90;;;;;;4876261;29;20511;-78
2024/03/20 04:37:40;;;;;;;19.02;9.80;;;9.80;99.90;;;;;;4878250;29;20709;-78
2024/03/20 04:40:07;;;;;;;19.75;9.70;;;9.70;99.90;;;;;;4871645;29;20037;-78
2024/03/20 04:42:33;;;;;;;17.80;10.45;;;9.70;99.90;;;;;;4878165;29;20183;-78
2024/03/20 04:45:00;;;;;;;17.77;8.98;;;9.70;99.90;;;;;;4876108;29;20049;-78
2024/03/20 04:47:25;;;;;;;17.83;9.35;;;9.70;99.90;;;;;;4877280;29;20037;-78
2024/03/20 04:49:51;;;;;;;16.02;9.05;;;9.80;99.90;;;;;;4877286;29;20037;-78
2024/03/20 04:52:17;;;;;;;14.82;9.10;;;9.70;99.90;;;;;;4868295;29;20160;-79
2024/03/20 04:54:42;;;;;;;15.55;9.18;;;9.70;99.90;;;;;;4870635;29;20408;-78
2024/03/20 04:57:08;;;;;;;18.40;8.68;;;9.70;99.90;;;;;;4868731;29;20047;-78
2024/03/20 04:59:34;;;;;;;18.30;8.75;;;9.60;99.90;;;;;;4875922;29;20041;-78
2024/03/20 05:01:59;;;;;;;14.23;8.57;;;9.70;99.90;;;;;;4876553;29;20561;-78
2024/03/20 05:04:25;;;;;;;17.15;9.60;;;9.70;99.90;;;;;;4875990;29;20037;-78
2024/03/20 05:06:50;;;;;;;14.95;8.75;;;9.70;99.90;;;;;;4875948;29;20128;-78
2024/03/20 05:09:16;;;;;;;15.20;9.07;;;9.60;99.90;;;;;;4875554;29;20099;-78
2024/03/20 05:11:41;;;;;;;14.15;8.93;;;9.70;99.90;;;;;;4875807;29;20552;-78
2024/03/20 05:14:07;;;;;;;20.25;9.38;;;9.70;99.90;;;;;;4868441;29;20041;-78
2024/03/20 05:16:33;;;;;;;18.13;9.45;;;9.70;99.90;;;;;;4876147;29;20040;-78
2024/03/20 05:18:58;;;;;;;19.92;9.57;;;9.70;99.90;;;;;;4876557;29;20128;-78
2024/03/20 05:21:24;;;;;;;19.23;9.85;;;9.70;99.90;;;;;;4875647;29;20045;-78
2024/03/20 05:23:49;;;;;;;18.90;10.05;;;9.70;99.90;;;;;;4876052;29;20068;-78
2024/03/20 05:26:16;;;;;;;18.10;9.82;;;9.70;99.90;;;;;;4871308;29;20041;-78
2024/03/20 05:28:41;;;;;;;18.05;10.23;;;9.70;99.90;;;;;;4875692;29;20053;-78
2024/03/20 05:31:07;;;;;;;18.48;10.18;;;9.70;99.90;;;;;;4874115;29;20128;-78
2024/03/20 05:33:33;;;;;;;18.67;9.85;;;9.90;99.90;;;;;;4875614;29;20056;-78
2024/03/20 05:35:58;;;;;;;20.70;10.38;;;9.80;99.90;;;;;;4877020;29;20413;-78
2024/03/20 05:38:24;;;;;;;17.58;10.00;;;9.80;99.90;;;;;;4875447;29;20177;-78
2024/03/20 05:40:50;;;;;;;15.73;9.73;;;9.80;99.90;;;;;;4881703;29;20547;-78
2024/03/20 05:43:15;;;;;;;15.48;9.27;;;9.80;99.90;;;;;;4881995;29;20044;-78
2024/03/20 05:45:41;;;;;;;16.17;9.70;;;9.70;99.90;;;;;;4881522;29;20052;-78
2024/03/20 05:48:07;;;;;;;16.45;9.77;;;9.70;99.90;;;;;;4880850;29;20056;-78
2024/03/20 05:50:34;;;;;;;14.77;9.07;;;9.70;99.90;;;;;;4880564;29;20048;-78
2024/03/20 05:53:00;;;;;;;14.70;9.38;;;9.90;99.90;;;;;;4880925;29;20041;-77
2024/03/20 05:55:25;;;;;;;14.27;9.15;;;9.70;99.90;;;;;;4880457;29;20059;-77
2024/03/20 05:57:51;;;;;;;16.08;8.90;;;9.70;99.90;;;;;;4881809;29;20040;-77
2024/03/20 06:00:18;;;;;;;15.40;9.32;;;9.70;99.90;;;;;;4879897;29;20041;-78
2024/03/20 06:02:44;;;;;;;15.20;9.70;;;9.70;99.90;;;;;;4877513;29;20045;-78
2024/03/20 06:05:10;;;;;;;20.02;9.40;;;9.80;99.90;;;;;;4884044;29;21179;-78
2024/03/20 06:07:36;;;;;;;14.98;9.40;;;9.90;99.90;;;;;;4883052;29;20057;-78
2024/03/20 06:10:03;;;;;;;19.30;9.63;;;9.80;99.90;;;;;;4882883;29;20453;-78
2024/03/20 06:12:28;;;;;;;16.05;9.82;;;9.80;99.90;;;;;;4880124;29;20116;-78
2024/03/20 06:14:54;;;;;;;16.42;9.70;;;9.90;99.90;;;;;;4880378;29;20137;-78
2024/03/20 06:17:20;;;;;;;14.48;9.45;;;9.90;99.90;;;;;;4881839;29;20453;-78
2024/03/20 06:19:45;;;;;;;20.77;9.80;;;9.90;99.90;;;;;;4879760;29;20041;-78
2024/03/20 06:22:11;;;;;;;20.58;10.65;;;10.00;99.90;;;;;;4880903;29;20385;-78
2024/03/20 06:24:39;;;;;;;19.25;10.73;;;10.10;99.90;;;;;;4882166;29;20068;-78
2024/03/20 06:27:05;;;;;;;23.73;11.00;;;10.10;99.90;;;;;;4881908;29;20056;-78
2024/03/20 06:29:32;;;;;;;16.67;10.13;;;10.00;99.90;;;;;;4880624;29;20051;-78
2024/03/20 06:31:57;;;;;;;17.90;10.23;;;10.10;99.90;;;;;;4878010;29;20053;-78
2024/03/20 06:34:23;;;;;;;18.27;10.07;;;10.10;99.90;;;;;;4882132;29;20036;-78
2024/03/20 06:36:49;;;;;;;24.33;10.98;;;10.10;99.90;;;;;;4878533;29;20041;-78
2024/03/20 06:39:14;;;;;;;19.92;9.65;;;10.10;99.90;;;;;;4881350;29;20041;-77
2024/03/20 06:41:43;;;;;;;19.95;9.93;;;10.20;99.90;;;;;;4881461;29;20053;-77
2024/03/20 06:44:10;;;;;;;20.02;10.38;;;10.40;99.90;;;;;;4874470;29;20449;-77
2024/03/20 06:46:36;;;;;;;16.95;10.95;;;10.30;99.90;;;;;;4882678;29;20053;-78
2024/03/20 06:49:09;;;;;;;16.52;10.05;;;10.30;99.90;;;;;;4880885;29;20514;-77
2024/03/20 06:51:38;;;;;;;20.52;10.75;;;10.50;99.90;;;;;;4877604;29;20424;-77
2024/03/20 06:54:16;;;;;;;20.10;10.43;;;10.40;99.90;;;;;;4878265;29;20424;-77
2024/03/20 06:56:48;;;;;;;18.85;10.32;;;10.40;99.90;;;;;;4877286;29;20053;-78
2024/03/20 06:59:17;;;;;;;19.48;10.02;;;10.40;99.90;;;;;;4878185;29;20045;-78
2024/03/20 07:01:42;;;;;;;17.58;10.13;;;10.50;99.90;;;;;;4873508;29;20569;-79
2024/03/20 07:04:08;;;;;;;16.92;10.43;;;10.50;99.90;;;;;;4879100;29;20053;-78
2024/03/20 07:06:33;;;;;;;17.30;9.77;;;10.50;99.90;;;;;;4875057;29;20045;-78
2024/03/20 07:08:59;;;;;;;21.38;10.65;;;10.60;99.90;;;;;;4874181;29;20073;-78
2024/03/20 07:11:25;;;;;;;17.42;10.82;;;10.60;99.90;;;;;;4876714;29;20049;-78
2024/03/20 07:13:54;;;;;;;17.85;9.77;;;10.60;99.90;;;;;;4879554;29;20421;-78
2024/03/20 07:16:20;;;;;;;17.80;10.00;;;10.60;99.90;;;;;;4879471;29;20033;-78
2024/03/20 07:18:45;;;;;;;18.98;10.82;;;10.60;99.90;;;;;;4873955;29;20048;-78
2024/03/20 07:21:11;;;;;;;20.38;10.73;;;10.60;99.90;;;;;;4878026;29;20045;-78
2024/03/20 07:23:36;;;;;;;19.67;11.00;;;10.60;99.90;;;;;;4877985;29;20543;-78
2024/03/20 07:26:02;;;;;;;21.23;10.57;;;10.70;99.90;;;;;;4883219;29;20045;-78
2024/03/20 07:28:28;;;;;;;23.63;10.80;;;10.70;99.90;;;;;;4878351;29;20037;-78
2024/03/20 07:30:53;;;;;;;18.50;10.85;;;10.80;99.90;;;;;;4877625;29;20049;-78
2024/03/20 07:33:19;;;;;;;18.60;11.38;;;10.80;99.90;;;;;;4879122;29;20076;-78
2024/03/20 07:35:47;;;;;;;22.60;10.88;;;10.80;99.90;;;;;;4867486;29;20121;-78
2024/03/20 07:38:13;;;;;;;21.70;10.60;;;10.90;99.90;;;;;;4874280;29;20045;-79
2024/03/20 07:40:42;;;;;;;17.42;11.05;;;10.90;99.90;;;;;;4878313;29;20065;-78
2024/03/20 07:43:08;;;;;;;15.32;10.18;;;11.00;99.90;;;;;;4878487;29;20072;-78
2024/03/20 07:45:34;;;;;;;21.35;11.40;;;11.00;99.90;;;;;;4877695;29;20050;-78
2024/03/20 07:48:00;;;;;;;22.02;11.32;;;11.20;99.90;;;;;;4879670;29;20059;-77
2024/03/20 07:50:26;;;;;;;19.10;10.73;;;11.10;99.90;;;;;;4868091;29;20046;-76
2024/03/20 07:52:54;;;;;;;18.88;10.38;;;11.10;99.90;;;;;;4862883;29;20072;-77
2024/03/20 07:55:20;;;;;;;20.33;11.15;;;11.20;99.90;;;;;;4874964;29;20045;-76
2024/03/20 07:57:46;;;;;;;19.60;9.98;;;11.20;99.90;;;;;;4877380;29;20068;-76
2024/03/20 08:00:15;;;;;;;17.55;9.88;;;11.20;99.90;;;;;;4870593;29;20037;-78
2024/03/20 08:02:44;;;;;;;17.65;10.02;;;11.30;99.90;;;;;;4875301;29;20111;-78
2024/03/20 08:05:11;;;;;;;18.70;10.10;;;11.30;99.90;;;;;;4876387;29;20627;-78
2024/03/20 08:07:37;;;;;;;18.48;9.80;;;11.30;99.90;;;;;;4876941;29;20063;-78
2024/03/20 08:10:03;;;;;;;20.15;9.95;;;11.30;99.90;;;;;;4878285;29;20084;-78
2024/03/20 08:12:29;;;;;;;21.00;10.00;;;11.30;99.90;;;;;;4877703;29;20099;-78
2024/03/20 08:14:55;;;;;;;20.55;11.07;;;11.30;99.90;;;;;;4877175;29;20125;-78
2024/03/20 08:17:20;;;;;;;17.33;10.20;;;11.40;99.90;;;;;;4861963;29;20120;-78
2024/03/20 08:19:46;;;;;;;20.70;10.70;;;11.40;99.90;;;;;;4874446;29;20045;-78
2024/03/20 08:22:12;;;;;;;18.42;9.70;;;11.40;99.90;;;;;;4876496;29;20399;-78
2024/03/20 08:24:37;;;;;;;21.10;9.90;;;11.40;99.90;;;;;;4877894;29;20037;-78
2024/03/20 08:27:03;;;;;;;20.27;9.73;;;11.40;99.90;;;;;;4877060;29;20049;-78
2024/03/20 08:29:29;;;;;;;18.65;9.30;;;11.50;99.90;;;;;;4876629;29;20037;-78
2024/03/20 08:31:54;;;;;;;18.17;9.70;;;11.60;99.90;;;;;;4878198;29;20123;-78
2024/03/20 08:34:20;;;;;;;20.35;8.75;;;11.60;99.90;;;;;;4877061;29;20558;-78
2024/03/20 08:36:46;;;;;;;20.60;10.18;;;11.60;99.90;;;;;;4874717;29;20041;-78
2024/03/20 08:39:11;;;;;;;20.27;9.80;;;11.60;99.90;;;;;;4876847;29;20041;-78
2024/03/20 08:41:37;;;;;;;18.83;8.95;;;11.70;99.90;;;;;;4876253;29;20178;-78
2024/03/20 08:44:03;;;;;;;14.25;8.80;;;11.70;99.90;;;;;;4876366;29;20136;-78
2024/03/20 08:46:28;;;;;;;19.70;9.10;;;11.80;99.90;;;;;;4876648;29;20048;-78
2024/03/20 08:48:54;;;;;;;18.48;9.35;;;11.90;99.90;;;;;;4922691;23;20041;-80
2024/03/20 08:51:21;;;;;;;19.10;9.73;;;11.90;99.90;;;;;;4880203;29;20385;-80
2024/03/20 08:53:47;;;;;;;15.52;9.18;;;12.00;99.90;;;;;;4882745;29;20037;-80
2024/03/20 08:56:13;;;;;;;18.70;9.07;;;12.10;99.90;;;;;;4883250;29;20560;-80
2024/03/20 08:58:38;;;;;;;21.65;8.98;;;12.10;99.90;;;;;;4882908;29;20128;-80
2024/03/20 09:01:04;;;;;;;17.70;8.68;;;12.20;99.90;;;;;;4879294;29;20119;-81
2024/03/20 09:03:30;;;;;;;22.67;9.00;;;12.30;99.90;;;;;;4882394;29;20079;-80
2024/03/20 09:05:56;;;;;;;16.65;8.93;;;12.40;99.90;;;;;;4881800;29;20045;-80
2024/03/20 09:08:22;;;;;;;16.60;8.25;;;12.50;99.90;;;;;;4881845;29;20048;-80
2024/03/20 09:10:47;;;;;;;18.42;8.48;;;12.60;99.90;;;;;;4879868;29;20049;-80
2024/03/20 09:13:13;;;;;;;17.88;8.13;;;12.70;99.90;;;;;;4881269;29;20048;-81
2024/03/20 09:15:39;;;;;;;19.08;8.45;;;12.80;99.90;;;;;;4877126;29;20093;-80
2024/03/20 09:18:05;;;;;;;15.27;8.18;;;12.80;99.90;;;;;;4879807;29;20045;-80
2024/03/20 09:20:31;;;;;;;17.30;8.68;;;12.90;99.90;;;;;;4881612;29;20055;-80
2024/03/20 09:22:57;;;;;;;21.08;9.15;;;13.00;99.90;;;;;;4880947;29;20045;-81
2024/03/20 09:25:23;;;;;;;15.05;8.80;;;13.00;99.90;;;;;;4879851;29;20055;-80
2024/03/20 09:27:49;;;;;;;16.35;8.90;;;13.00;99.90;;;;;;4880688;29;20123;-81
2024/03/20 09:30:15;;;;;;;13.07;8.18;;;13.10;99.90;;;;;;4880781;29;20385;-81
2024/03/20 09:32:45;;;;;;;13.38;8.55;;;13.10;99.90;;;;;;4882462;29;20049;-81
2024/03/20 09:35:12;;;;;;;14.30;8.23;;;13.10;99.90;;;;;;4865804;29;20053;-80
2024/03/20 09:37:38;;;;;;;17.95;7.95;;;13.10;99.90;;;;;;4880204;29;20056;-81
2024/03/20 09:40:10;;;;;;;12.52;7.88;;;13.20;99.90;;;;;;4879762;29;20049;-80
2024/03/20 09:42:36;;;;;;;15.55;8.88;;;13.40;99.90;;;;;;4865677;29;20065;-80
2024/03/20 09:45:03;;;;;;;18.05;9.38;;;13.50;99.90;;;;;;4878113;29;20064;-81
2024/03/20 09:47:31;;;;;;;18.17;8.23;;;13.50;99.90;;;;;;4879153;29;20105;-80
2024/03/20 09:49:59;;;;;;;14.13;7.85;;;13.60;99.90;;;;;;4880695;29;20512;-80
2024/03/20 09:52:26;;;;;;;17.10;8.20;;;13.70;99.90;;;;;;4879225;29;20041;-80
2024/03/20 09:54:53;;;;;;;21.42;8.25;;;13.70;99.90;;;;;;4879938;29;20108;-80
2024/03/20 09:57:22;;;;;;;15.95;7.68;;;13.70;99.90;;;;;;4864537;29;20400;-80
2024/03/20 09:59:50;;;;;;;20.20;8.73;;;13.80;99.90;;;;;;4876682;29;20045;-81
2024/03/20 10:02:16;;;;;;;15.95;7.55;;;13.80;99.90;;;;;;4880067;29;20431;-81
2024/03/20 10:04:42;;;;;;;16.77;8.25;;;13.90;99.90;;;;;;4864765;29;20185;-80
2024/03/20 10:07:14;;;;;;;16.35;8.15;;;14.00;99.90;;;;;;4864934;29;20086;-80
2024/03/20 10:09:46;;;;;;;14.95;7.47;;;14.10;99.90;;;;;;4871836;29;20052;-81
2024/03/20 10:12:14;;;;;;;18.17;8.00;;;14.20;99.90;;;;;;4878941;29;20088;-80
2024/03/20 10:14:40;;;;;;;17.92;7.82;;;14.30;99.90;;;;;;4874757;29;20049;-80
2024/03/20 10:17:17;;;;;;;18.27;8.23;;;14.30;99.90;;;;;;4879349;29;20504;-80
2024/03/20 10:19:43;;;;;;;15.55;7.38;;;14.40;99.90;;;;;;4880742;29;20048;-80
2024/03/20 10:22:09;;;;;;;16.73;7.95;;;14.50;99.90;;;;;;4874693;29;20037;-80
2024/03/20 10:24:35;;;;;;;18.42;8.85;;;14.60;99.90;;;;;;4880554;29;20052;-80
2024/03/20 10:27:02;;;;;;;20.45;9.00;;;14.70;99.90;;;;;;4882061;29;20048;-81
2024/03/20 10:29:33;;;;;;;16.92;8.35;;;14.70;99.90;;;;;;4880673;29;20112;-80
2024/03/20 10:32:05;;;;;;;17.25;8.10;;;14.80;99.90;;;;;;4883952;29;20477;-80
2024/03/20 10:34:33;;;;;;;16.45;8.45;;;14.80;99.90;;;;;;4884955;29;20531;-80
2024/03/20 10:36:59;;;;;;;15.05;9.38;;;14.90;99.90;;;;;;4883130;29;20546;-81
2024/03/20 10:39:27;;;;;;;13.65;8.82;;;15.00;99.90;;;;;;4883070;29;20049;-80
2024/03/20 10:41:54;;;;;;;14.10;8.82;;;14.90;99.90;;;;;;4885519;29;20061;-80
2024/03/20 10:44:22;;;;;;;13.20;7.95;;;15.00;99.90;;;;;;4875743;29;20093;-80
2024/03/20 10:46:51;;;;;;;17.08;9.18;;;15.10;99.90;;;;;;4890908;29;20077;-81
2024/03/20 10:49:23;;;;;;;13.85;8.43;;;15.20;99.90;;;;;;4887948;29;20151;-81
2024/03/20 10:51:51;;;;;;;16.90;8.80;;;15.30;99.90;;;;;;4887234;29;20079;-80
2024/03/20 10:54:17;;;;;;;19.33;9.90;;;15.40;99.90;;;;;;4885886;29;20546;-80
2024/03/20 10:56:48;;;;;;;19.10;9.93;;;15.50;99.90;;;;;;4886987;29;20056;-81
2024/03/20 10:59:16;;;;;;;;;;;15.60;99.90;;;;;;4886490;29;20043;-80
2024/03/20 11:02:05;;;;;;;17.00;10.48;;;15.60;99.90;;;;;;4887533;29;20355;-81
2024/03/20 11:04:39;;;;;;;19.60;10.80;;;15.60;99.90;;;;;;4887511;29;20049;-81
2024/03/20 11:07:24;;;;;;;18.35;11.57;;;15.70;99.90;;;;;;4886981;29;20033;-80
2024/03/20 11:09:53;;;;;;;22.40;11.55;;;15.70;99.90;;;;;;4878377;29;20052;-81
2024/03/20 11:12:30;;;;;;;20.25;11.30;;;15.80;99.90;;;;;;4877590;29;20412;-80
2024/03/20 11:15:02;;;;;;;22.00;11.52;;;15.80;99.90;;;;;;4885762;29;20049;-82
2024/03/20 11:17:27;;;;;;;21.95;11.60;;;15.80;99.90;;;;;;4881344;29;20041;-80
2024/03/20 11:19:53;;;;;;;21.85;11.93;;;16.00;99.90;;;;;;4886449;29;20037;-81
2024/03/20 11:22:23;;;;;;;;;;;16.10;99.90;;;;;;4886755;29;20044;-80
2024/03/20 11:24:53;;;;;;;20.67;12.00;;;16.10;99.90;;;;;;4886624;29;19926;-81
2024/03/20 11:27:22;;;;;;;20.83;12.10;;;16.10;99.90;;;;;;4870401;29;20393;-83
2024/03/20 11:29:48;;;;;;;21.15;11.43;;;16.10;99.90;;;;;;4871798;29;20041;-81
2024/03/20 11:32:15;;;;;;;22.45;12.40;;;16.10;99.90;;;;;;4887645;29;20076;-80
2024/03/20 11:34:44;;;;;;;20.63;11.45;;;16.10;99.90;;;;;;4881685;29;20052;-81
2024/03/20 11:37:18;;;;;;;17.17;12.20;;;16.20;99.90;;;;;;4886252;29;20041;-81
2024/03/20 11:39:45;;;;;;;23.20;12.30;;;16.20;99.90;;;;;;4867161;29;20093;-81
2024/03/20 11:42:15;;;;;;;19.42;13.10;;;16.20;99.90;;;;;;4871285;29;20592;-80
2024/03/20 11:44:41;;;;;;;21.25;12.85;;;16.20;99.90;;;;;;4883235;29;20089;-81
2024/03/20 11:47:11;;;;;;;21.15;12.50;;;16.30;99.90;;;;;;4886532;29;20041;-81
2024/03/20 11:49:46;;;;;;;23.30;13.23;;;16.30;99.90;;;;;;4887344;29;20055;-81
2024/03/20 11:52:15;;;;;;;22.08;12.43;;;16.20;99.90;;;;;;4870787;29;20250;-81
2024/03/20 11:54:42;;;;;;;20.88;13.55;;;16.10;99.90;;;;;;4867279;29;20044;-81
2024/03/20 11:57:12;;;;;;;22.13;12.63;;;16.10;99.90;;;;;;4884997;29;20037;-80
2024/03/20 11:59:38;;;;;;;21.08;12.82;;;16.00;99.90;;;;;;4882014;29;20131;-81
2024/03/20 12:02:05;;;;;;;21.77;13.70;;;16.10;99.90;;;;;;4882849;29;20060;-81
2024/03/20 12:04:35;;;;;;;23.50;13.52;;;16.20;99.90;;;;;;4886561;29;20044;-82
2024/03/20 12:07:00;;;;;;;24.90;14.00;;;16.10;99.90;;;;;;4885413;29;20041;-80
2024/03/20 12:09:26;;;;;;;19.77;13.48;;;16.20;99.90;;;;;;4870348;29;20062;-81
2024/03/20 12:11:52;;;;;;;20.17;13.40;;;16.20;99.90;;;;;;4885661;29;20125;-81
2024/03/20 12:14:18;;;;;;;22.60;13.80;;;16.20;99.90;;;;;;4870803;29;20045;-82
2024/03/20 12:16:43;;;;;;;22.13;13.68;;;16.30;99.90;;;;;;4886254;29;20045;-81
2024/03/20 12:19:09;;;;;;;23.02;12.95;;;16.20;99.90;;;;;;4885497;29;20043;-81
2024/03/20 12:21:35;;;;;;;19.63;12.95;;;16.30;99.90;;;;;;4884418;29;20049;-81
2024/03/20 12:24:00;;;;;;;18.23;12.07;;;16.20;99.90;;;;;;4884949;29;20116;-80
2024/03/20 12:26:28;;;;;;;19.67;12.32;;;16.20;99.90;;;;;;4885017;29;20051;-80
2024/03/20 12:28:54;;;;;;;19.77;13.05;;;16.10;99.90;;;;;;4869549;29;20048;-80
2024/03/20 12:31:22;;;;;;;20.75;12.85;;;16.10;99.90;;;;;;4885052;29;20041;-81
2024/03/20 12:33:50;;;;;;;23.20;11.82;;;16.10;99.90;;;;;;4883941;29;20044;-81
2024/03/20 12:36:17;;;;;;;26.50;12.63;;;16.30;99.90;;;;;;4884874;29;20047;-81